createdAt,value
2019-06-26T00:01:49.707Z,13.32
2019-06-26T00:04:18.232Z,10.70
2019-06-26T00:06:46.961Z,13.20
2019-06-26T00:09:15.645Z,10.68
2019-06-26T00:11:44.107Z,12.78
2019-06-26T00:14:12.594Z,11.03
2019-06-26T00:16:41.027Z,13.00
2019-06-26T00:19:09.766Z,9.70
2019-06-26T00:21:38.202Z,10.50
2019-06-26T00:24:06.692Z,11.03
2019-06-26T00:26:35.417Z,12.65
2019-06-26T00:29:04.100Z,11.12
2019-06-26T00:31:32.568Z,12.85
2019-06-26T00:34:01.366Z,14.07
2019-06-26T00:36:30.059Z,11.70
2019-06-26T00:38:58.744Z,15.35
2019-06-26T00:41:27.474Z,11.75
2019-06-26T00:43:56.217Z,14.38
2019-06-26T00:46:24.637Z,13.40
2019-06-26T00:48:53.310Z,14.20
2019-06-26T00:51:22.068Z,13.30
2019-06-26T00:53:50.498Z,13.98
2019-06-26T00:56:19.219Z,16.45
2019-06-26T00:58:47.906Z,16.45
2019-06-26T01:01:16.910Z,16.25
2019-06-26T01:03:45.580Z,16.97
2019-06-26T01:06:25.019Z,19.57
2019-06-26T01:08:53.697Z,16.52
2019-06-26T01:11:22.140Z,18.87
2019-06-26T01:13:58.028Z,18.75
2019-06-26T01:16:20.965Z,19.10
2019-06-26T01:18:49.391Z,17.03
2019-06-26T01:21:18.160Z,18.77
2019-06-26T01:23:46.576Z,20.35
2019-06-26T01:26:15.322Z,19.82
2019-06-26T01:28:43.741Z,21.62
2019-06-26T01:31:12.165Z,23.22
2019-06-26T01:33:40.608Z,20.20
2019-06-26T01:36:09.274Z,19.40
2019-06-26T01:38:37.723Z,19.77
2019-06-26T01:41:06.156Z,21.20
2019-06-26T01:43:34.643Z,19.77
2019-06-26T01:46:04.100Z,18.00
2019-06-26T01:48:32.519Z,19.37
2019-06-26T01:51:01.190Z,19.42
2019-06-26T01:53:29.630Z,19.70
2019-06-26T01:55:58.058Z,20.25
2019-06-26T01:58:27.121Z,21.20
2019-06-26T02:00:55.795Z,20.92
2019-06-26T02:03:24.595Z,25.25
2019-06-26T02:05:53.074Z,24.57
2019-06-26T02:08:21.828Z,25.43
2019-06-26T02:10:50.512Z,25.00
2019-06-26T02:13:19.210Z,28.30
2019-06-26T02:15:47.893Z,25.72
2019-06-26T02:18:27.077Z,27.90
2019-06-26T02:20:55.599Z,27.45
2019-06-26T02:23:24.118Z,28.33
2019-06-26T02:25:52.589Z,28.07
2019-06-26T02:28:21.042Z,29.72
2019-06-26T02:30:49.925Z,26.87
2019-06-26T02:33:18.370Z,29.95
2019-06-26T02:35:47.194Z,28.70
2019-06-26T02:38:16.021Z,31.77
2019-06-26T02:40:44.691Z,27.98
2019-06-26T02:43:13.204Z,28.60
2019-06-26T02:45:41.906Z,29.10
2019-06-26T02:48:10.613Z,31.17
2019-06-26T02:50:39.283Z,30.30
2019-06-26T02:53:07.795Z,28.00
2019-06-26T02:55:36.222Z,37.58
2019-06-26T02:58:04.714Z,31.00
2019-06-26T03:00:33.397Z,28.60
2019-06-26T03:03:02.239Z,29.37
2019-06-26T03:05:30.902Z,32.13
2019-06-26T03:07:59.322Z,30.20
2019-06-26T03:10:27.993Z,35.10
2019-06-26T05:04:56.852Z,32.35
2019-06-26T05:07:25.650Z,31.55
2019-06-26T05:09:54.058Z,33.83
2019-06-26T05:12:22.488Z,31.60
2019-06-26T05:14:50.911Z,29.90
2019-06-26T05:17:19.343Z,36.50
2019-06-26T05:19:48.129Z,33.28
2019-06-26T05:22:16.569Z,30.12
2019-06-26T05:24:46.501Z,30.45
2019-06-26T05:27:16.240Z,31.43
2019-06-26T05:29:44.702Z,32.42
2019-06-26T05:32:13.208Z,37.42
2019-06-26T05:34:41.632Z,30.52
2019-06-26T05:37:10.060Z,31.33
2019-06-26T05:39:38.497Z,31.07
2019-06-26T05:42:07.032Z,38.53
2019-06-26T05:44:35.626Z,35.35
2019-06-26T05:47:06.967Z,36.68
2019-06-26T05:49:34.193Z,40.95
2019-06-26T05:52:02.668Z,31.67
2019-06-26T05:54:31.121Z,34.90
2019-06-26T05:56:59.600Z,37.00
2019-06-26T05:59:28.055Z,35.20
2019-06-26T06:01:56.493Z,36.85
2019-06-26T06:04:24.912Z,35.38
2019-06-26T06:06:53.341Z,38.83
2019-06-26T06:09:21.830Z,38.23
2019-06-26T06:11:50.265Z,37.03
2019-06-26T06:14:19.045Z,38.17
2019-06-26T06:16:48.126Z,35.10
2019-06-26T06:19:16.673Z,37.98
2019-06-26T06:21:45.738Z,37.78
2019-06-26T06:24:14.153Z,35.83
2019-06-26T06:26:42.601Z,36.17
2019-06-26T06:29:11.304Z,34.87
2019-06-26T06:31:39.756Z,31.97
2019-06-26T06:34:08.652Z,33.53
2019-06-26T06:36:37.085Z,31.10
2019-06-26T06:39:06.340Z,32.17
2019-06-26T06:41:34.756Z,29.63
2019-06-26T06:44:03.257Z,29.07
2019-06-26T06:46:32.092Z,30.78
2019-06-26T06:49:00.518Z,26.85
2019-06-26T06:51:28.959Z,29.82
2019-06-26T06:53:57.398Z,27.45
2019-06-26T06:56:25.827Z,24.12
2019-06-26T06:58:54.265Z,24.63
2019-06-26T07:01:22.775Z,23.57
2019-06-26T07:03:51.218Z,25.47
2019-06-26T07:06:19.657Z,27.43
2019-06-26T07:08:48.085Z,24.20
2019-06-26T07:11:16.506Z,25.88
2019-06-26T07:13:44.957Z,25.77
2019-06-26T07:16:13.530Z,26.52
2019-06-26T07:18:41.993Z,27.82
2019-06-26T07:21:10.479Z,22.32
2019-06-26T07:23:38.897Z,22.87
2019-06-26T07:26:07.313Z,20.00
2019-06-26T07:28:35.839Z,19.00
2019-06-26T07:31:04.259Z,21.87
2019-06-26T07:33:32.690Z,22.90
2019-06-26T07:36:01.125Z,23.65
2019-06-26T07:38:29.678Z,24.70
2019-06-26T07:40:58.123Z,22.42
2019-06-26T07:43:26.540Z,24.65
2019-06-26T07:45:54.981Z,24.95
2019-06-26T07:48:23.417Z,23.02
2019-06-26T07:50:52.110Z,20.20
2019-06-26T07:53:20.556Z,19.12
2019-06-26T07:55:48.977Z,17.90
2019-06-26T07:58:17.439Z,18.23
2019-06-26T08:00:45.990Z,21.57
2019-06-26T08:03:14.519Z,21.48
2019-06-26T08:05:43.397Z,21.40
2019-06-26T08:08:14.464Z,20.77
2019-06-26T08:10:42.588Z,20.53
2019-06-26T08:13:11.004Z,25.12
2019-06-26T08:15:39.437Z,20.62
2019-06-26T08:18:07.885Z,19.55
2019-06-26T08:20:50.266Z,20.83
2019-06-26T08:23:06.449Z,18.33
2019-06-26T08:25:34.907Z,16.40
2019-06-26T08:28:03.376Z,18.05
2019-06-26T08:30:31.809Z,16.48
2019-06-26T08:33:00.472Z,16.50
2019-06-26T08:35:28.925Z,15.43
2019-06-26T08:38:09.454Z,15.38
2019-06-26T08:40:28.649Z,16.50
2019-06-26T08:42:57.087Z,15.45
2019-06-26T08:45:25.835Z,15.10
2019-06-26T08:47:55.134Z,15.35
2019-06-26T08:50:24.485Z,12.90
2019-06-26T08:52:52.999Z,13.50
2019-06-26T08:55:21.434Z,15.25
2019-06-26T08:57:50.212Z,14.58
2019-06-26T09:00:19.455Z,14.78
2019-06-26T09:02:48.118Z,12.20
2019-06-26T09:05:16.697Z,14.90
2019-06-26T09:07:45.138Z,15.93
2019-06-26T09:10:14.329Z,16.12
2019-06-26T09:12:42.761Z,14.68
2019-06-26T09:15:11.658Z,13.83
2019-06-26T09:17:40.087Z,15.77
2019-06-26T09:20:09.154Z,16.05
2019-06-26T09:22:37.655Z,16.40
2019-06-26T09:25:20.828Z,15.08
2019-06-26T09:27:38.096Z,16.00
2019-06-26T09:30:07.592Z,16.45
2019-06-26T09:32:36.155Z,14.47
2019-06-26T09:35:05.981Z,15.45
2019-06-26T09:37:34.415Z,14.18
2019-06-26T09:40:02.960Z,18.97
2019-06-26T09:42:31.439Z,19.73
2019-06-26T09:44:59.924Z,14.20
2019-06-26T09:47:30.964Z,13.55
2019-06-26T09:49:58.592Z,13.97
2019-06-26T09:52:27.130Z,14.60
2019-06-26T09:54:55.640Z,14.65
2019-06-26T09:57:24.053Z,16.73
2019-06-26T09:59:52.490Z,14.63
2019-06-26T10:02:20.922Z,14.47
2019-06-26T10:04:49.367Z,12.65
2019-06-26T10:07:18.022Z,15.70
2019-06-26T10:09:46.693Z,15.60
2019-06-26T10:12:15.404Z,14.97
2019-06-26T10:14:47.872Z,14.87
2019-06-26T10:17:14.853Z,16.00
2019-06-26T10:19:43.533Z,16.30
2019-06-26T10:22:11.979Z,16.55
2019-06-26T10:24:40.725Z,15.72
2019-06-26T10:27:09.162Z,16.67
2019-06-26T10:29:37.578Z,15.32
2019-06-26T10:32:06.062Z,17.62
2019-06-26T10:34:34.543Z,14.98
2019-06-26T10:37:03.016Z,15.35
2019-06-26T10:39:31.500Z,16.55
2019-06-26T10:41:59.936Z,16.23
2019-06-26T10:44:28.357Z,16.30
2019-06-26T10:46:56.909Z,17.17
2019-06-26T10:49:27.441Z,17.42
2019-06-26T10:51:55.491Z,21.97
2019-06-26T10:54:23.956Z,19.45
2019-06-26T10:56:52.400Z,18.80
2019-06-26T10:59:20.827Z,19.62
2019-06-26T11:01:49.253Z,21.73
2019-06-26T11:04:17.684Z,19.80
2019-06-26T11:06:46.174Z,19.25
2019-06-26T11:09:14.917Z,22.45
2019-06-26T11:11:43.693Z,19.95
2019-06-26T11:14:12.142Z,20.77
2019-06-26T11:16:40.568Z,19.20
2019-06-26T11:19:09.044Z,16.73
2019-06-26T11:21:37.911Z,20.27
2019-06-26T11:24:06.586Z,20.60
2019-06-26T11:26:35.392Z,21.93
2019-06-26T11:29:04.063Z,21.30
2019-06-26T11:31:32.764Z,20.55
2019-06-26T11:34:01.403Z,21.15
2019-06-26T11:36:30.210Z,20.97
2019-06-26T11:38:58.728Z,19.50
2019-06-26T11:41:27.165Z,17.90
2019-06-26T11:43:55.699Z,17.82
2019-06-26T11:46:24.387Z,17.32
2019-06-26T11:48:53.218Z,21.35
2019-06-26T11:51:21.651Z,19.35
2019-06-26T11:53:50.385Z,20.72
2019-06-26T11:56:19.249Z,23.95
2019-06-26T11:58:47.685Z,23.98
2019-06-26T12:01:16.101Z,25.12
2019-06-26T12:03:44.544Z,24.67
2019-06-26T12:06:18.821Z,25.30
2019-06-26T12:11:11.365Z,25.43
2019-06-26T12:13:39.825Z,26.12
2019-06-26T12:16:08.241Z,22.02
2019-06-26T12:18:36.674Z,22.80
2019-06-26T12:21:05.875Z,22.20
2019-06-26T12:23:34.302Z,21.70
2019-06-26T12:26:02.985Z,22.75
2019-06-26T12:28:31.424Z,21.42
2019-06-26T12:30:59.876Z,24.90
2019-06-26T12:33:28.310Z,22.23
2019-06-26T12:35:56.749Z,27.98
2019-06-26T12:38:25.191Z,25.15
2019-06-26T12:40:53.681Z,25.75
2019-06-26T12:43:22.359Z,21.47
2019-06-26T12:45:50.765Z,25.23
2019-06-26T12:48:19.318Z,20.35
2019-06-26T12:50:47.812Z,20.70
2019-06-26T12:53:16.302Z,19.40
2019-06-26T12:55:44.716Z,21.10
2019-06-26T12:58:19.198Z,17.60
2019-06-26T13:00:43.330Z,21.07
2019-06-26T13:03:11.789Z,20.40
2019-06-26T13:05:40.216Z,18.35
2019-06-26T13:08:09.005Z,19.00
2019-06-26T13:10:48.892Z,17.40
2019-06-26T13:13:07.952Z,16.35
2019-06-26T13:15:36.412Z,18.40
2019-06-26T13:18:04.946Z,20.97
2019-06-26T13:20:33.528Z,21.37
2019-06-26T13:23:02.229Z,20.62
2019-06-26T13:25:31.028Z,20.05
2019-06-26T13:27:59.728Z,22.75
2019-06-26T13:30:34.019Z,20.53
2019-06-26T13:33:02.442Z,18.77
2019-06-26T13:35:31.138Z,20.37
2019-06-26T13:37:59.615Z,20.57
2019-06-26T13:40:28.089Z,19.10
2019-06-26T13:42:56.512Z,20.25
2019-06-26T13:45:25.014Z,17.32
2019-06-26T13:47:53.417Z,15.50
2019-06-26T13:50:22.033Z,14.93
2019-06-26T13:52:50.686Z,15.83
2019-06-26T13:55:19.117Z,18.63
2019-06-26T13:57:47.928Z,14.70
2019-06-26T14:00:16.896Z,16.70
2019-06-26T14:02:45.670Z,14.00
2019-06-26T14:05:14.491Z,12.65
2019-06-26T14:07:43.216Z,16.57
2019-06-26T14:10:12.246Z,13.65
2019-06-26T14:12:40.662Z,13.73
2019-06-26T14:15:09.638Z,11.30
2019-06-26T14:17:38.080Z,11.68
2019-06-26T14:20:08.106Z,12.98
2019-06-26T14:22:36.588Z,13.93
2019-06-26T14:25:08.368Z,14.68
2019-06-26T14:27:37.013Z,13.62
2019-06-26T14:30:07.816Z,12.23
2019-06-26T14:32:36.276Z,12.97
2019-06-26T14:35:05.750Z,11.57
2019-06-26T14:37:34.194Z,12.03
2019-06-26T14:40:02.721Z,13.25
2019-06-26T14:42:31.128Z,12.33
2019-06-26T14:44:59.579Z,15.75
2019-06-26T14:47:27.996Z,12.20
2019-06-26T14:49:56.429Z,11.40
2019-06-26T14:52:25.133Z,10.82
2019-06-26T14:54:53.549Z,10.65
2019-06-26T14:57:25.095Z,11.90
2019-06-26T14:59:52.414Z,11.43
2019-06-26T15:02:20.849Z,10.40
2019-06-26T15:04:49.276Z,11.50
2019-06-26T15:07:17.697Z,10.25
2019-06-26T15:09:46.121Z,10.05
2019-06-26T15:12:15.024Z,11.93
2019-06-26T15:14:43.442Z,10.38
2019-06-26T15:17:12.138Z,14.15
2019-06-26T15:19:40.814Z,11.05
2019-06-26T15:22:09.258Z,10.50
2019-06-26T15:24:38.831Z,11.18
2019-06-26T15:27:07.535Z,13.53
2019-06-26T15:29:36.207Z,12.18
2019-06-26T15:32:04.642Z,12.80
2019-06-26T15:34:33.356Z,11.78
2019-06-26T15:37:02.227Z,12.20
2019-06-26T15:39:30.977Z,13.72
2019-06-26T15:41:59.408Z,13.58
2019-06-26T15:44:27.839Z,13.70
2019-06-26T15:46:56.267Z,14.87
2019-06-26T15:49:24.696Z,13.32
2019-06-26T15:51:53.150Z,15.48
2019-06-26T15:54:21.578Z,13.20
2019-06-26T15:56:50.028Z,13.55
2019-06-26T15:59:18.463Z,13.45
2019-06-26T16:01:47.017Z,12.60
2019-06-26T16:04:15.441Z,13.20
2019-06-26T16:06:43.886Z,12.55
2019-06-26T16:09:12.298Z,12.63
2019-06-26T16:11:40.758Z,12.23
2019-06-26T16:14:09.262Z,11.60
2019-06-26T16:16:39.589Z,11.30
2019-06-26T16:19:15.393Z,11.60
2019-06-26T16:21:44.136Z,11.03
2019-06-26T16:24:12.550Z,14.38
2019-06-26T16:26:40.994Z,12.95
2019-06-26T16:29:09.603Z,12.47
2019-06-26T16:31:38.106Z,13.62
2019-06-26T16:34:06.533Z,14.13
2019-06-26T16:36:35.553Z,13.00
2019-06-26T16:39:06.638Z,12.47
2019-06-26T16:41:35.825Z,12.58
2019-06-26T16:44:05.117Z,12.23
2019-06-26T16:46:33.537Z,13.80
2019-06-26T16:49:02.317Z,12.28
2019-06-26T16:51:30.754Z,13.78
2019-06-26T16:53:59.207Z,15.13
2019-06-26T16:56:27.619Z,14.30
2019-06-26T16:58:56.090Z,14.03
2019-06-26T17:01:24.508Z,16.25
2019-06-26T17:03:53.097Z,14.00
2019-06-26T17:06:21.514Z,13.80
2019-06-26T17:08:49.960Z,14.40
2019-06-26T17:11:18.376Z,14.07
2019-06-26T17:13:46.886Z,15.90
2019-06-26T17:16:16.990Z,14.33
2019-06-26T17:18:45.437Z,12.95
2019-06-26T17:21:13.873Z,13.62
2019-06-26T17:23:42.375Z,13.83
2019-06-26T17:26:10.790Z,13.68
2019-06-26T17:28:39.243Z,14.27
2019-06-26T17:31:07.670Z,12.53
2019-06-26T17:33:36.402Z,12.37
2019-06-26T17:36:05.131Z,14.58
2019-06-26T17:38:34.023Z,13.50
2019-06-26T17:41:03.235Z,12.58
2019-06-26T17:43:31.731Z,12.43
2019-06-26T17:46:00.187Z,12.77
2019-06-26T17:48:28.630Z,12.63
2019-06-26T17:50:57.186Z,11.90
2019-06-26T17:53:26.158Z,12.80
2019-06-26T17:55:54.604Z,12.15
2019-06-26T17:58:25.388Z,12.35
2019-06-26T18:00:53.504Z,11.70
2019-06-26T18:03:21.932Z,12.15
2019-06-26T18:05:50.354Z,12.88
2019-06-26T18:08:19.189Z,14.50
2019-06-26T18:10:47.866Z,14.47
2019-06-26T18:13:16.695Z,12.20
2019-06-26T18:15:45.125Z,12.78
2019-06-26T18:18:13.869Z,13.53
2019-06-26T18:20:42.333Z,14.87
2019-06-26T18:23:10.880Z,14.05
2019-06-26T18:25:39.617Z,13.23
2019-06-26T18:28:08.064Z,14.35
2019-06-26T18:30:36.761Z,13.22
2019-06-26T18:33:05.224Z,13.10
2019-06-26T18:35:33.785Z,12.60
2019-06-26T18:38:02.205Z,12.55
2019-06-26T18:40:31.007Z,12.63
2019-06-26T18:42:59.434Z,12.13
2019-06-26T18:45:28.172Z,11.33
2019-06-26T18:47:56.659Z,11.38
2019-06-26T18:50:25.109Z,14.50
2019-06-26T18:52:53.570Z,13.08
2019-06-26T18:55:22.049Z,11.97
2019-06-26T18:57:50.474Z,13.60
2019-06-26T19:00:20.436Z,12.43
2019-06-26T19:02:48.900Z,12.40
2019-06-26T19:05:17.590Z,14.45
2019-06-26T19:07:46.022Z,12.37
2019-06-26T19:10:14.809Z,12.03
2019-06-26T19:12:43.371Z,14.65
2019-06-26T19:15:12.240Z,12.75
2019-06-26T19:17:42.524Z,12.70
2019-06-26T19:20:11.365Z,12.97
2019-06-26T19:22:39.845Z,12.53
2019-06-26T19:25:08.801Z,13.78
2019-06-26T19:27:37.240Z,13.22
2019-06-26T19:30:07.649Z,12.85
2019-06-26T19:32:37.569Z,12.07
2019-06-26T19:35:18.407Z,12.20
2019-06-26T19:37:37.725Z,10.93
2019-06-26T19:40:08.565Z,10.72
2019-06-26T19:45:07.879Z,10.55
2019-06-26T19:47:36.657Z,12.03
2019-06-26T19:50:08.558Z,9.68
2019-06-26T19:52:37.078Z,11.00
2019-06-26T19:55:08.725Z,10.28
2019-06-26T19:57:37.166Z,9.83
2019-06-26T20:00:08.210Z,9.48
2019-06-26T20:05:08.345Z,9.18
2019-06-26T20:07:36.773Z,10.05
2019-06-26T20:10:07.049Z,9.45
2019-06-26T20:12:35.499Z,9.88
2019-06-26T20:15:05.916Z,9.83
2019-06-26T20:17:34.413Z,10.67
2019-06-26T20:20:04.813Z,9.17
2019-06-26T20:22:33.246Z,9.70
2019-06-26T20:25:01.708Z,10.75
2019-06-26T20:27:30.158Z,10.23
2019-06-26T20:29:58.560Z,9.38
2019-06-26T20:32:26.996Z,10.70
2019-06-26T20:34:55.835Z,9.13
2019-06-26T20:37:24.260Z,10.60
2019-06-26T20:39:52.725Z,8.98
2019-06-26T20:42:21.212Z,11.45
2019-06-26T20:44:49.624Z,10.63
2019-06-26T20:47:18.049Z,11.70
2019-06-26T20:49:53.306Z,10.25
2019-06-26T20:52:16.875Z,9.60
2019-06-26T20:55:00.050Z,9.78
2019-06-26T20:57:15.438Z,9.97
2019-06-26T20:59:44.105Z,9.05
2019-06-26T21:02:12.537Z,8.23
2019-06-26T21:04:40.966Z,9.23
2019-06-26T21:07:09.747Z,11.05
2019-06-26T21:09:38.684Z,7.73
2019-06-26T21:12:07.512Z,9.58
2019-06-26T21:14:36.185Z,9.70
2019-06-26T21:17:04.626Z,8.38
2019-06-26T21:19:33.060Z,6.80
2019-06-26T21:22:01.488Z,11.18
2019-06-26T21:24:29.943Z,7.20
2019-06-26T21:26:58.592Z,6.58
2019-06-26T21:29:27.031Z,7.15
2019-06-26T21:31:55.496Z,6.45
2019-06-26T21:34:24.193Z,6.97
2019-06-26T21:36:52.634Z,5.95
2019-06-26T21:39:21.063Z,5.12
2019-06-26T21:41:49.472Z,5.70
2019-06-26T21:44:17.900Z,4.47
2019-06-26T21:46:46.558Z,5.53
2019-06-26T21:49:15.938Z,6.42
2019-06-26T21:51:44.364Z,6.12
2019-06-26T21:54:12.788Z,5.70
2019-06-26T21:56:41.260Z,6.47
2019-06-26T21:59:09.740Z,4.97
2019-06-26T22:01:38.451Z,6.80
2019-06-26T22:04:07.063Z,5.50
2019-06-26T22:06:35.948Z,5.95
2019-06-26T22:09:06.066Z,5.20
2019-06-26T22:11:34.481Z,5.17
2019-06-26T22:14:03.235Z,7.20
2019-06-26T22:16:36.432Z,5.37
2019-06-26T22:19:04.985Z,5.53
2019-06-26T22:21:33.464Z,5.60
2019-06-26T22:24:01.902Z,4.47
2019-06-26T22:26:30.333Z,5.37
2019-06-26T22:28:58.831Z,4.90
2019-06-26T22:31:27.325Z,4.97
2019-06-26T22:33:55.756Z,4.37
2019-06-26T22:36:24.166Z,6.37
2019-06-26T22:38:52.602Z,5.87
2019-06-26T22:41:21.010Z,4.12
2019-06-26T22:43:49.425Z,3.55
2019-06-26T22:46:17.856Z,6.40
2019-06-26T22:48:46.283Z,5.22
2019-06-26T22:51:14.832Z,4.22
2019-06-26T22:53:46.821Z,4.45
2019-06-26T22:56:15.252Z,5.65
2019-06-26T22:58:46.592Z,3.80
2019-06-26T23:01:15.039Z,4.53
2019-06-26T23:03:43.531Z,6.95
2019-06-26T23:06:11.953Z,5.37
2019-06-26T23:08:40.446Z,4.65
2019-06-26T23:11:08.882Z,4.45
2019-06-26T23:13:47.187Z,6.08
2019-06-26T23:16:15.639Z,4.22
2019-06-26T23:18:44.055Z,4.37
2019-06-26T23:21:12.755Z,4.65
2019-06-26T23:23:42.345Z,5.95
2019-06-26T23:26:23.461Z,5.20
2019-06-26T23:28:41.095Z,4.23
2019-06-26T23:31:09.847Z,5.40
2019-06-26T23:33:38.375Z,4.22
2019-06-26T23:36:06.937Z,4.50
2019-06-26T23:38:35.694Z,5.47
2019-06-26T23:41:04.485Z,4.03
2019-06-26T23:43:33.174Z,4.25
2019-06-26T23:46:01.682Z,6.65
2019-06-26T23:48:30.670Z,4.97
2019-06-26T23:50:59.111Z,4.60
2019-06-26T23:53:27.535Z,5.17
2019-06-26T23:55:55.970Z,6.40
2019-06-26T23:58:24.390Z,3.80
